createdAt,value
2019-04-22T00:03:01.410Z,16.70
2019-04-22T00:08:29.515Z,14.07
2019-04-22T00:13:40.173Z,15.00
2019-04-22T00:18:54.946Z,14.57
2019-04-22T00:23:49.938Z,14.23
2019-04-22T00:33:57.700Z,13.43
2019-04-22T00:39:07.094Z,12.10
2019-04-22T00:44:12.384Z,13.40
2019-04-22T00:54:25.314Z,13.67
2019-04-22T00:59:23.538Z,13.43
2019-04-22T01:04:34.651Z,11.87
2019-04-22T01:09:40.392Z,11.47
2019-04-22T01:14:46.017Z,11.73
2019-04-22T01:19:53.055Z,11.20
2019-04-22T01:24:50.120Z,12.67
2019-04-22T01:29:46.840Z,11.23
2019-04-22T01:34:55.267Z,12.53
2019-04-22T01:40:09.856Z,11.37
2019-04-22T01:45:17.748Z,11.60
2019-04-22T01:50:23.926Z,9.60
2019-04-22T02:00:38.439Z,9.63
2019-04-22T02:05:39.426Z,9.60
2019-04-22T02:10:52.674Z,9.30
2019-04-22T02:15:52.548Z,10.50
2019-04-22T02:20:50.023Z,9.67
2019-04-22T02:41:31.101Z,7.53
2019-04-22T02:51:27.751Z,6.83
2019-04-22T02:56:45.461Z,8.00
2019-04-22T03:01:45.043Z,7.67
2019-04-22T03:06:58.037Z,7.40
2019-04-22T03:12:02.862Z,6.07
2019-04-22T03:17:01.102Z,7.33
2019-04-22T03:22:12.470Z,6.07
2019-04-22T03:27:08.232Z,7.80
2019-04-22T03:37:32.347Z,7.53
2019-04-22T03:42:52.167Z,7.20
2019-04-22T03:47:38.258Z,7.83
2019-04-22T03:52:30.953Z,8.47
2019-04-22T04:13:05.541Z,9.50
2019-04-22T04:23:31.017Z,9.97
2019-04-22T04:28:29.415Z,9.23
2019-04-22T04:38:26.625Z,13.17
2019-04-22T04:43:35.025Z,13.63
2019-04-22T05:03:58.117Z,10.83
2019-04-22T05:14:06.340Z,11.10
2019-04-22T05:19:13.370Z,11.83
2019-04-22T05:29:11.079Z,12.80
2019-04-22T05:34:18.444Z,11.40
2019-04-22T05:39:38.058Z,9.40
2019-04-22T05:44:29.468Z,8.80
2019-04-22T05:49:31.270Z,9.27
2019-04-22T05:54:38.678Z,8.97
2019-04-22T05:59:46.263Z,8.70
2019-04-22T06:04:55.772Z,8.40
2019-04-22T06:09:49.253Z,8.77
2019-04-22T06:14:58.678Z,8.60
2019-04-22T06:20:02.272Z,8.63
2019-04-22T06:25:38.659Z,9.00
2019-04-22T06:30:16.956Z,7.53
2019-04-22T06:35:34.464Z,7.87
2019-04-22T06:40:31.838Z,7.53
2019-04-22T06:45:35.339Z,8.33
2019-04-22T06:50:43.379Z,9.77
2019-04-22T06:55:45.603Z,7.13
2019-04-22T07:01:13.803Z,7.47
2019-04-22T07:06:00.249Z,6.43
2019-04-22T07:10:56.604Z,6.60
2019-04-22T07:16:05.241Z,6.83
2019-04-22T07:21:25.964Z,5.83
2019-04-22T07:26:13.963Z,5.70
2019-04-22T07:31:20.580Z,6.07
2019-04-22T07:41:34.441Z,5.27
2019-04-22T07:46:43.118Z,5.30
2019-04-22T07:51:44.471Z,4.90
2019-04-22T07:56:55.986Z,5.67
2019-04-22T08:01:48.329Z,5.77
2019-04-22T08:07:05.050Z,5.63
2019-04-22T08:11:57.834Z,5.23
2019-04-22T08:17:32.668Z,5.43
2019-04-22T08:22:17.101Z,4.53
2019-04-22T08:27:15.508Z,4.73
2019-04-22T08:32:31.351Z,4.47
2019-04-22T08:37:47.645Z,5.03
2019-04-22T08:42:53.352Z,5.20
2019-04-22T08:47:42.269Z,5.20
2019-04-22T08:52:55.890Z,5.13
2019-04-22T08:58:13.349Z,4.53
2019-04-22T09:03:03.136Z,3.57
2019-04-22T09:08:09.373Z,5.17
2019-04-22T09:13:22.523Z,4.20
2019-04-22T09:18:16.045Z,11.17
2019-04-22T09:23:23.544Z,4.27
2019-04-22T09:28:23.274Z,4.03
2019-04-22T09:33:27.246Z,4.90
2019-04-22T09:38:38.134Z,4.83
2019-04-22T09:48:44.148Z,4.53
2019-04-22T09:53:54.834Z,4.70
2019-04-22T09:58:58.533Z,5.20
2019-04-22T10:04:00.799Z,5.67
2019-04-22T10:14:13.893Z,4.17
2019-04-22T10:19:19.639Z,4.73
2019-04-22T10:24:19.278Z,5.37
2019-04-22T10:29:24.931Z,4.53
2019-04-22T10:34:17.863Z,4.93
2019-04-22T10:39:12.565Z,4.40
2019-04-22T10:44:17.199Z,5.10
2019-04-22T10:49:20.755Z,4.43
2019-04-22T10:54:25.381Z,4.50
2019-04-22T10:59:28.988Z,4.03
2019-04-22T11:04:34.416Z,4.00
2019-04-22T11:09:49.394Z,4.60
2019-04-22T11:14:43.380Z,4.20
2019-04-22T11:19:47.947Z,4.70
2019-04-22T11:24:52.883Z,4.57
2019-04-22T11:29:57.434Z,4.07
2019-04-22T11:35:01.700Z,3.87
2019-04-22T11:40:19.321Z,4.87
2019-04-22T11:45:15.263Z,3.67
2019-04-22T11:50:19.958Z,4.60
2019-04-22T11:55:26.686Z,4.70
2019-04-22T12:00:35.022Z,5.13
2019-04-22T12:05:39.797Z,3.87
2019-04-22T12:10:50.655Z,4.33
2019-04-22T12:15:49.130Z,3.67
2019-04-22T12:20:53.212Z,3.77
2019-04-22T12:26:03.486Z,3.37
2019-04-22T12:31:01.982Z,3.70
2019-04-22T12:36:08.502Z,3.33
2019-04-22T12:41:13.926Z,3.13
2019-04-22T12:46:18.533Z,3.50
2019-04-22T12:51:23.076Z,3.90
2019-04-22T12:56:27.861Z,3.40
2019-04-22T13:01:32.990Z,2.80
2019-04-22T13:06:37.551Z,2.77
2019-04-22T13:11:42.699Z,2.73
2019-04-22T13:16:47.249Z,2.23
2019-04-22T13:21:51.067Z,4.23
2019-04-22T13:26:55.008Z,2.80
2019-04-22T13:31:58.702Z,2.50
2019-04-22T13:37:03.174Z,4.90
2019-04-22T13:42:12.061Z,2.07
2019-04-22T13:47:28.227Z,2.33
2019-04-22T13:52:58.496Z,2.07
2019-04-22T13:57:41.380Z,2.40
2019-04-22T14:02:34.743Z,2.70
2019-04-22T14:07:38.882Z,11.87
2019-04-22T14:12:42.707Z,2.07
2019-04-22T14:17:47.190Z,1.90
2019-04-22T14:22:50.741Z,2.23
2019-04-22T14:28:01.231Z,2.63
2019-04-22T14:33:00.379Z,1.63
2019-04-22T14:38:04.271Z,1.90
2019-04-22T14:43:31.310Z,1.67
2019-04-22T14:48:41.894Z,6.00
2019-04-22T14:53:43.366Z,5.67
2019-04-22T14:58:24.657Z,5.53
2019-04-22T15:03:28.548Z,4.10
2019-04-22T15:08:33.000Z,5.67
2019-04-22T15:13:36.609Z,2.10
2019-04-22T15:18:44.314Z,2.80
2019-04-22T15:23:48.676Z,4.37
2019-04-22T15:28:53.540Z,10.30
2019-04-22T15:33:58.435Z,2.70
2019-04-22T15:39:02.951Z,3.40
2019-04-22T15:44:07.968Z,2.93
2019-04-22T15:49:11.909Z,3.20
2019-04-22T15:54:16.073Z,2.90
2019-04-22T15:59:41.635Z,3.10
2019-04-22T16:04:24.740Z,3.83
2019-04-22T16:09:28.991Z,4.60
2019-04-22T16:14:39.391Z,2.60
2019-04-22T16:19:39.075Z,4.03
2019-04-22T16:24:47.923Z,2.87
2019-04-22T16:29:51.690Z,3.07
2019-04-22T16:34:56.493Z,3.00
2019-04-22T16:40:00.861Z,4.93
2019-04-22T16:45:07.556Z,2.90
2019-04-22T16:50:11.248Z,3.53
2019-04-22T16:55:14.858Z,3.00
2019-04-22T17:00:20.548Z,3.23
2019-04-22T17:05:43.371Z,3.40
2019-04-22T17:10:46.976Z,3.17
2019-04-22T17:15:51.418Z,2.70
2019-04-22T17:20:55.118Z,2.97
2019-04-22T17:25:58.685Z,3.10
2019-04-22T17:31:02.236Z,2.60
2019-04-22T17:36:07.658Z,9.10
2019-04-22T17:41:24.770Z,4.10
2019-04-22T17:46:48.773Z,3.13
2019-04-22T17:52:20.917Z,3.50
2019-04-22T17:57:29.505Z,3.20
2019-04-22T18:02:25.109Z,2.73
2019-04-22T18:12:44.173Z,6.27
2019-04-22T18:17:49.506Z,3.23
2019-04-22T18:22:41.778Z,2.93
2019-04-22T18:27:58.793Z,2.80
2019-04-22T18:33:00.281Z,3.27
2019-04-22T18:38:11.304Z,3.13
2019-04-22T18:43:10.213Z,3.70
2019-04-22T18:48:06.472Z,2.63
2019-04-22T18:53:38.633Z,3.00
2019-04-22T18:58:34.482Z,3.37
2019-04-22T19:03:29.892Z,2.93
2019-04-22T19:08:50.582Z,3.40
2019-04-22T19:14:02.297Z,4.03
2019-04-22T19:19:20.512Z,2.80
2019-04-22T19:24:04.310Z,3.20
2019-04-22T19:29:13.399Z,2.73
2019-04-22T19:34:16.680Z,2.83
2019-04-22T19:39:16.121Z,3.00
2019-04-22T19:44:29.159Z,2.60
2019-04-22T19:49:42.267Z,1.93
2019-04-22T19:54:40.869Z,2.43
2019-04-22T19:59:42.692Z,2.47
2019-04-22T20:04:52.902Z,2.47
2019-04-22T20:09:58.708Z,2.50
2019-04-22T20:15:00.723Z,2.57
2019-04-22T20:20:17.452Z,2.43
2019-04-22T20:25:05.567Z,2.50
2019-04-22T20:30:23.471Z,2.83
2019-04-22T20:35:34.084Z,2.30
2019-04-22T20:40:33.164Z,2.30
2019-04-22T20:45:39.541Z,2.37
2019-04-22T20:50:47.927Z,2.17
2019-04-22T20:55:52.458Z,4.03
2019-04-22T21:00:50.567Z,2.50
2019-04-22T21:05:54.111Z,2.40
2019-04-22T21:11:04.138Z,8.13
2019-04-22T21:16:18.390Z,14.73
2019-04-22T21:21:20.381Z,3.27
2019-04-22T21:26:24.347Z,2.83
2019-04-22T21:31:34.095Z,3.50
2019-04-22T21:36:40.369Z,3.10
2019-04-22T21:41:37.592Z,2.97
2019-04-22T21:46:51.732Z,4.20
2019-04-22T21:51:53.831Z,2.40
2019-04-22T21:57:18.918Z,2.93
2019-04-22T22:02:25.211Z,3.10
2019-04-22T22:07:13.822Z,3.10
2019-04-22T22:12:37.505Z,2.60
2019-04-22T22:17:31.606Z,2.67
2019-04-22T22:22:52.202Z,2.43
2019-04-22T22:27:44.728Z,2.43
2019-04-22T22:32:55.140Z,3.83
2019-04-22T22:37:55.133Z,2.53
2019-04-22T22:42:46.334Z,3.13
2019-04-22T22:48:18.863Z,2.60
2019-04-22T22:53:25.586Z,3.20
2019-04-22T22:58:24.524Z,2.60
2019-04-22T23:03:44.093Z,2.67
2019-04-22T23:08:32.964Z,2.87
2019-04-22T23:13:38.261Z,3.20
2019-04-22T23:18:19.766Z,3.40
2019-04-22T23:23:48.973Z,3.50
2019-04-22T23:28:50.927Z,3.67
2019-04-22T23:33:57.260Z,3.03
2019-04-22T23:39:06.966Z,3.57
2019-04-22T23:44:17.774Z,2.80
2019-04-22T23:49:16.247Z,3.57
2019-04-22T23:54:25.217Z,3.97
2019-04-22T23:59:38.232Z,3.67
